SVA120 EGLL-OEJN
Flight info
| Callsign | SVA120 |
|---|---|
| Flight time | N/A |
| Altitude | 35000 |
| Route | DET L6 DVR UL9 KONAN UL607 KOK DCT BITBU DCT BABEG/N0471F370 DCT KONIN DCT ERKIR DCT DARZA DCT GLOMY DCT PETAK DCT DIMIS DCT IPTES UL604 SALUN N705 BOPIX N710 TAKRI P751 AST/N0477F390 P751 LXR M999 MUVOL |
| Aircraft | B77W/H-SDE1E2E3FGHIJ2J3J4J5M1RWXY/LB1D1 |
Departure
| Time | 2026-05-05 13:41 |
|---|---|
| Airport | London Heathrow Airport (EGLL) |
Arrival
| Time | N/A |
|---|---|
| Airport | King Abdulaziz International Airport (OEJN) |
| Time | Latitude | Longitude | Altitude | Speed | Heading |
|---|---|---|---|---|---|
| 2026-05-05 13:10 | 51.46025 | -0.44884 | 91 ft | 0 kts | 130° |
| 2026-05-05 13:23 | 51.46029 | -0.44891 | 95 ft | 2 kts | 130° |
| 2026-05-05 13:24 | 51.46042 | -0.44915 | 93 ft | 3 kts | 130° |
| 2026-05-05 13:24 | 51.46054 | -0.44938 | 94 ft | 2 kts | 130° |
| 2026-05-05 13:24 | 51.46064 | -0.44958 | 93 ft | 3 kts | 118° |
| 2026-05-05 13:24 | 51.46070 | -0.44980 | 94 ft | 3 kts | 91° |
| 2026-05-05 13:25 | 51.46070 | -0.44998 | 93 ft | 3 kts | 57° |
| 2026-05-05 13:25 | 51.46059 | -0.45018 | 90 ft | 3 kts | 36° |
| 2026-05-05 13:25 | 51.46043 | -0.45036 | 94 ft | 2 kts | 38° |
| 2026-05-05 13:25 | 51.46039 | -0.45042 | 92 ft | 0 kts | 40° |
| 2026-05-05 13:27 | 51.46039 | -0.45041 | 93 ft | 0 kts | 40° |
| 2026-05-05 13:27 | 51.46067 | -0.45003 | 92 ft | 9 kts | 40° |
| 2026-05-05 13:28 | 51.46112 | -0.44941 | 95 ft | 9 kts | 42° |
| 2026-05-05 13:28 | 51.46156 | -0.44877 | 95 ft | 9 kts | 42° |
| 2026-05-05 13:28 | 51.46200 | -0.44813 | 95 ft | 9 kts | 41° |
| 2026-05-05 13:28 | 51.46249 | -0.44744 | 95 ft | 9 kts | 38° |
| 2026-05-05 13:29 | 51.46305 | -0.44747 | 93 ft | 9 kts | 316° |
| 2026-05-05 13:29 | 51.46318 | -0.44841 | 94 ft | 9 kts | 270° |
| 2026-05-05 13:29 | 51.46319 | -0.44956 | 94 ft | 14 kts | 271° |
| 2026-05-05 13:29 | 51.46319 | -0.45127 | 94 ft | 16 kts | 269° |
| 2026-05-05 13:30 | 51.46317 | -0.45301 | 94 ft | 16 kts | 269° |
| 2026-05-05 13:30 | 51.46316 | -0.45475 | 94 ft | 16 kts | 270° |
| 2026-05-05 13:30 | 51.46321 | -0.45648 | 92 ft | 16 kts | 275° |
| 2026-05-05 13:30 | 51.46324 | -0.45822 | 91 ft | 16 kts | 268° |
| 2026-05-05 13:31 | 51.46322 | -0.45996 | 91 ft | 16 kts | 270° |
| 2026-05-05 13:31 | 51.46323 | -0.46170 | 91 ft | 16 kts | 270° |
| 2026-05-05 13:31 | 51.46323 | -0.46343 | 91 ft | 16 kts | 270° |
| 2026-05-05 13:31 | 51.46322 | -0.46517 | 91 ft | 16 kts | 269° |
| 2026-05-05 13:32 | 51.46322 | -0.46691 | 91 ft | 16 kts | 270° |
| 2026-05-05 13:32 | 51.46323 | -0.46865 | 91 ft | 16 kts | 270° |
| 2026-05-05 13:32 | 51.46323 | -0.47039 | 91 ft | 16 kts | 270° |
| 2026-05-05 13:32 | 51.46322 | -0.47212 | 91 ft | 16 kts | 270° |
| 2026-05-05 13:33 | 51.46331 | -0.47385 | 94 ft | 16 kts | 284° |
| 2026-05-05 13:33 | 51.46341 | -0.47557 | 94 ft | 16 kts | 266° |
| 2026-05-05 13:33 | 51.46308 | -0.47721 | 93 ft | 16 kts | 237° |
| 2026-05-05 13:33 | 51.46257 | -0.47879 | 92 ft | 18 kts | 254° |
| 2026-05-05 13:34 | 51.46251 | -0.48075 | 89 ft | 18 kts | 269° |
| 2026-05-05 13:34 | 51.46250 | -0.48283 | 82 ft | 18 kts | 270° |
| 2026-05-05 13:34 | 51.46250 | -0.48459 | 87 ft | 14 kts | 270° |
| 2026-05-05 13:34 | 51.46257 | -0.48604 | 92 ft | 10 kts | 285° |
| 2026-05-05 13:35 | 51.46288 | -0.48683 | 91 ft | 0 kts | 315° |
| 2026-05-05 13:38 | 51.46290 | -0.48686 | 86 ft | 3 kts | 316° |
| 2026-05-05 13:38 | 51.46317 | -0.48716 | 88 ft | 6 kts | 329° |
| 2026-05-05 13:39 | 51.46375 | -0.48746 | 93 ft | 10 kts | 350° |
| 2026-05-05 13:39 | 51.46441 | -0.48745 | 93 ft | 10 kts | 19° |
| 2026-05-05 13:39 | 51.46478 | -0.48661 | 96 ft | 9 kts | 86° |
| 2026-05-05 13:39 | 51.46477 | -0.48653 | 95 ft | 0 kts | 90° |
| 2026-05-05 13:40 | 51.46478 | -0.48389 | 92 ft | 60 kts | 89° |
| 2026-05-05 13:40 | 51.46482 | -0.47315 | 91 ft | 132 kts | 89° |
| 2026-05-05 13:40 | 51.46496 | -0.45546 | 174 ft | 174 kts | 86° |
| 2026-05-05 13:41 | 51.46431 | -0.43636 | 940 ft | 169 kts | 97° |
| 2026-05-05 13:41 | 51.46250 | -0.41799 | 1700 ft | 166 kts | 92° |
| 2026-05-05 13:41 | 51.45992 | -0.39936 | 2045 ft | 184 kts | 121° |
| 2026-05-05 13:41 | 51.45047 | -0.38390 | 2274 ft | 204 kts | 133° |
| 2026-05-05 13:42 | 51.44325 | -0.36412 | 2432 ft | 220 kts | 101° |
| 2026-05-05 13:42 | 51.43916 | -0.33857 | 2690 ft | 246 kts | 104° |
| 2026-05-05 13:42 | 51.43387 | -0.31260 | 3445 ft | 251 kts | 106° |
| 2026-05-05 13:42 | 51.42813 | -0.28598 | 4245 ft | 254 kts | 106° |
| 2026-05-05 13:43 | 51.42355 | -0.25828 | 5084 ft | 254 kts | 100° |
| 2026-05-05 13:43 | 51.42122 | -0.23981 | 5558 ft | 257 kts | 99° |
| 2026-05-05 13:43 | 51.41641 | -0.20211 | 6537 ft | 265 kts | 101° |
| 2026-05-05 13:43 | 51.41253 | -0.17295 | 7236 ft | 271 kts | 101° |
| 2026-05-05 13:44 | 51.40982 | -0.15283 | 7716 ft | 275 kts | 101° |
| 2026-05-05 13:44 | 51.40434 | -0.11267 | 8672 ft | 282 kts | 102° |
| 2026-05-05 13:44 | 51.40147 | -0.09188 | 9186 ft | 284 kts | 102° |
| 2026-05-05 13:44 | 51.39717 | -0.06074 | 9933 ft | 288 kts | 102° |
| 2026-05-05 13:45 | 51.39276 | -0.02892 | 10461 ft | 300 kts | 102° |
| 2026-05-05 13:45 | 51.38805 | 0.00510 | 10654 ft | 326 kts | 102° |
| 2026-05-05 13:45 | 51.38294 | 0.04183 | 10843 ft | 351 kts | 102° |
| 2026-05-05 13:45 | 51.37749 | 0.08081 | 11357 ft | 365 kts | 102° |
| 2026-05-05 13:46 | 51.37189 | 0.12079 | 12177 ft | 371 kts | 102° |
| 2026-05-05 13:46 | 51.36620 | 0.16129 | 13189 ft | 375 kts | 102° |
| 2026-05-05 13:46 | 51.36045 | 0.20210 | 14132 ft | 379 kts | 102° |
| 2026-05-05 13:46 | 51.35459 | 0.24352 | 14981 ft | 384 kts | 102° |
| 2026-05-05 13:47 | 51.34864 | 0.28541 | 15842 ft | 388 kts | 102° |
| 2026-05-05 13:47 | 51.34272 | 0.32730 | 16783 ft | 394 kts | 102° |
| 2026-05-05 13:47 | 51.33660 | 0.37039 | 17643 ft | 400 kts | 102° |
| 2026-05-05 13:47 | 51.33036 | 0.41404 | 18480 ft | 405 kts | 102° |
| 2026-05-05 13:48 | 51.32401 | 0.45820 | 19238 ft | 410 kts | 103° |
| 2026-05-05 13:48 | 51.31762 | 0.50280 | 19980 ft | 414 kts | 103° |
| 2026-05-05 13:48 | 51.31111 | 0.54791 | 20697 ft | 419 kts | 103° |
| 2026-05-05 13:48 | 51.30449 | 0.59350 | 21405 ft | 423 kts | 103° |
| 2026-05-05 13:49 | 51.29715 | 0.63927 | 22122 ft | 427 kts | 106° |
| 2026-05-05 13:49 | 51.28888 | 0.68504 | 22827 ft | 431 kts | 107° |
| 2026-05-05 13:49 | 51.28021 | 0.73110 | 23468 ft | 436 kts | 108° |
| 2026-05-05 13:49 | 51.27140 | 0.77763 | 24044 ft | 439 kts | 108° |
| 2026-05-05 13:50 | 51.26262 | 0.82441 | 24671 ft | 441 kts | 108° |
| 2026-05-05 13:50 | 51.25385 | 0.87152 | 25238 ft | 444 kts | 108° |
| 2026-05-05 13:50 | 51.24504 | 0.91903 | 25692 ft | 449 kts | 108° |
| 2026-05-05 13:50 | 51.23619 | 0.96694 | 26229 ft | 452 kts | 108° |
| 2026-05-05 13:51 | 51.22726 | 1.01522 | 26761 ft | 455 kts | 108° |
| 2026-05-05 13:51 | 51.21826 | 1.06383 | 27307 ft | 458 kts | 108° |
| 2026-05-05 13:51 | 51.20918 | 1.11267 | 27789 ft | 461 kts | 108° |
| 2026-05-05 13:51 | 51.20001 | 1.16183 | 28245 ft | 465 kts | 108° |
| 2026-05-05 13:52 | 51.19073 | 1.21152 | 28717 ft | 468 kts | 108° |
| 2026-05-05 13:52 | 51.18140 | 1.26131 | 29182 ft | 471 kts | 108° |
| 2026-05-05 13:52 | 51.17197 | 1.31151 | 29625 ft | 474 kts | 108° |
| 2026-05-05 13:52 | 51.16405 | 1.36272 | 30006 ft | 478 kts | 103° |
| 2026-05-05 13:53 | 51.15933 | 1.41516 | 30455 ft | 479 kts | 96° |
| 2026-05-05 13:53 | 51.15697 | 1.46797 | 30976 ft | 477 kts | 96° |
| 2026-05-05 13:53 | 51.15475 | 1.52064 | 31471 ft | 476 kts | 96° |
| 2026-05-05 13:53 | 51.15246 | 1.57313 | 31895 ft | 476 kts | 96° |
| 2026-05-05 13:54 | 51.15004 | 1.62573 | 32316 ft | 475 kts | 96° |
| 2026-05-05 13:54 | 51.14750 | 1.67814 | 32746 ft | 475 kts | 96° |
| 2026-05-05 13:54 | 51.14489 | 1.73055 | 33166 ft | 474 kts | 96° |
| 2026-05-05 13:54 | 51.14223 | 1.78279 | 33565 ft | 474 kts | 97° |
| 2026-05-05 13:55 | 51.13955 | 1.83507 | 33958 ft | 474 kts | 97° |
| 2026-05-05 13:55 | 51.13686 | 1.88738 | 34260 ft | 474 kts | 97° |
| 2026-05-05 13:55 | 51.13415 | 1.93982 | 34519 ft | 476 kts | 97° |
| 2026-05-05 13:55 | 51.13140 | 1.99238 | 34782 ft | 477 kts | 97° |
| 2026-05-05 13:56 | 51.12578 | 2.09848 | 34918 ft | 484 kts | 97° |
| 2026-05-05 13:56 | 51.12007 | 2.20469 | 34920 ft | 479 kts | 97° |
| 2026-05-05 13:57 | 51.11436 | 2.30956 | 34931 ft | 474 kts | 97° |
| 2026-05-05 13:57 | 51.10854 | 2.41427 | 34928 ft | 475 kts | 97° |
| 2026-05-05 13:58 | 51.10265 | 2.51895 | 34921 ft | 476 kts | 97° |
| 2026-05-05 13:58 | 51.09532 | 2.62346 | 34914 ft | 474 kts | 103° |
| 2026-05-05 13:59 | 51.07711 | 2.72381 | 34909 ft | 471 kts | 115° |
| 2026-05-05 13:59 | 51.06452 | 2.77167 | 34917 ft | 470 kts | 115° |
| 2026-05-05 14:00 | 51.02599 | 2.91484 | 34910 ft | 469 kts | 116° |
| 2026-05-05 14:00 | 51.00055 | 3.01002 | 34908 ft | 468 kts | 116° |
| 2026-05-05 14:01 | 50.97527 | 3.10495 | 34898 ft | 466 kts | 116° |
| 2026-05-05 14:01 | 50.95005 | 3.19950 | 34891 ft | 464 kts | 116° |
| 2026-05-05 14:02 | 50.92486 | 3.29349 | 34879 ft | 463 kts | 116° |
| 2026-05-05 14:02 | 50.89963 | 3.38722 | 34884 ft | 462 kts | 116° |
| 2026-05-05 14:03 | 50.87439 | 3.48058 | 34876 ft | 461 kts | 116° |
| 2026-05-05 14:03 | 50.84927 | 3.57313 | 34879 ft | 460 kts | 116° |
| 2026-05-05 14:04 | 50.82378 | 3.66665 | 34869 ft | 460 kts | 116° |
| 2026-05-05 14:04 | 50.79854 | 3.75894 | 34869 ft | 460 kts | 116° |
| 2026-05-05 14:05 | 50.77289 | 3.85229 | 34868 ft | 461 kts | 116° |
| 2026-05-05 14:05 | 50.74729 | 3.94513 | 34864 ft | 460 kts | 117° |
| 2026-05-05 14:06 | 50.72185 | 4.03702 | 34870 ft | 460 kts | 117° |
| 2026-05-05 14:06 | 50.69620 | 4.12929 | 34866 ft | 459 kts | 117° |
| 2026-05-05 14:07 | 50.67049 | 4.22145 | 34888 ft | 459 kts | 117° |
| 2026-05-05 14:07 | 50.64475 | 4.31331 | 34881 ft | 458 kts | 117° |
| 2026-05-05 14:08 | 50.61892 | 4.40515 | 34872 ft | 458 kts | 117° |
| 2026-05-05 14:08 | 50.59304 | 4.49681 | 34890 ft | 459 kts | 117° |
| 2026-05-05 14:09 | 50.56706 | 4.58848 | 34880 ft | 459 kts | 117° |
| 2026-05-05 14:09 | 50.54092 | 4.68034 | 34881 ft | 460 kts | 117° |
| 2026-05-05 14:10 | 50.51475 | 4.77199 | 34873 ft | 460 kts | 117° |
| 2026-05-05 14:10 | 50.48846 | 4.86367 | 34871 ft | 461 kts | 117° |
| 2026-05-05 14:11 | 50.46208 | 4.95531 | 34861 ft | 461 kts | 117° |
| 2026-05-05 14:11 | 50.43564 | 5.04684 | 34856 ft | 460 kts | 117° |
| 2026-05-05 14:12 | 50.40918 | 5.13807 | 34855 ft | 459 kts | 117° |
| 2026-05-05 14:12 | 50.38269 | 5.22903 | 34853 ft | 459 kts | 118° |
| 2026-05-05 14:13 | 50.35614 | 5.31989 | 34852 ft | 459 kts | 118° |
| 2026-05-05 14:13 | 50.32952 | 5.41064 | 34852 ft | 459 kts | 118° |
| 2026-05-05 14:14 | 50.30283 | 5.50128 | 34847 ft | 458 kts | 118° |
| 2026-05-05 14:14 | 50.27606 | 5.59182 | 34843 ft | 458 kts | 118° |
| 2026-05-05 14:15 | 50.24928 | 5.68210 | 34837 ft | 458 kts | 118° |
| 2026-05-05 14:15 | 50.22245 | 5.77220 | 34838 ft | 458 kts | 119° |
| 2026-05-05 14:16 | 50.19549 | 5.86239 | 34844 ft | 459 kts | 119° |
| 2026-05-05 14:16 | 50.16837 | 5.95278 | 34831 ft | 459 kts | 119° |
| 2026-05-05 14:17 | 50.14132 | 6.04266 | 34817 ft | 457 kts | 119° |
| 2026-05-05 14:17 | 50.11440 | 6.13178 | 34820 ft | 452 kts | 120° |
| 2026-05-05 14:18 | 50.08760 | 6.22011 | 34827 ft | 450 kts | 120° |
| 2026-05-05 14:18 | 50.06084 | 6.30800 | 34831 ft | 449 kts | 120° |
| 2026-05-05 14:19 | 50.03402 | 6.39577 | 34829 ft | 450 kts | 120° |
| 2026-05-05 14:19 | 50.00713 | 6.48354 | 34828 ft | 450 kts | 120° |
| 2026-05-05 14:20 | 49.97966 | 6.57099 | 34832 ft | 449 kts | 123° |
| 2026-05-05 14:20 | 49.94712 | 6.65335 | 34835 ft | 447 kts | 126° |
| 2026-05-05 14:21 | 49.91394 | 6.73521 | 34833 ft | 448 kts | 126° |
| 2026-05-05 14:21 | 49.88079 | 6.81722 | 34837 ft | 449 kts | 126° |
| 2026-05-05 14:22 | 49.84796 | 6.89863 | 34833 ft | 449 kts | 126° |
| 2026-05-05 14:22 | 49.81477 | 6.98082 | 34842 ft | 449 kts | 126° |
| 2026-05-05 14:23 | 49.78161 | 7.06269 | 34842 ft | 449 kts | 126° |
| 2026-05-05 14:23 | 49.74835 | 7.14449 | 34838 ft | 449 kts | 126° |
| 2026-05-05 14:24 | 49.71511 | 7.22603 | 34854 ft | 448 kts | 126° |
| 2026-05-05 14:24 | 49.68182 | 7.30741 | 34827 ft | 448 kts | 126° |
| 2026-05-05 14:25 | 49.64853 | 7.38855 | 34843 ft | 448 kts | 126° |
| 2026-05-05 14:25 | 49.61511 | 7.46976 | 34833 ft | 448 kts | 126° |
| 2026-05-05 14:26 | 49.58166 | 7.55078 | 34830 ft | 448 kts | 126° |
| 2026-05-05 14:26 | 49.54807 | 7.63189 | 34829 ft | 449 kts | 126° |
| 2026-05-05 14:27 | 49.51442 | 7.71290 | 34831 ft | 449 kts | 126° |
| 2026-05-05 14:27 | 49.48637 | 7.78025 | 34830 ft | 450 kts | 126° |
| 2026-05-05 14:28 | 49.45258 | 7.86117 | 34828 ft | 450 kts | 126° |
| 2026-05-05 14:28 | 49.41865 | 7.94214 | 34834 ft | 451 kts | 126° |
| 2026-05-05 14:29 | 49.38463 | 8.02311 | 34832 ft | 451 kts | 126° |
| 2026-05-05 14:29 | 49.35053 | 8.10402 | 34842 ft | 452 kts | 126° |
| 2026-05-05 14:30 | 49.31630 | 8.18496 | 34840 ft | 452 kts | 126° |
| 2026-05-05 14:30 | 49.28202 | 8.26579 | 34846 ft | 453 kts | 126° |
| 2026-05-05 14:31 | 49.24765 | 8.34658 | 34845 ft | 453 kts | 127° |
| 2026-05-05 14:31 | 49.21326 | 8.42719 | 34845 ft | 453 kts | 127° |
| 2026-05-05 14:32 | 49.17879 | 8.50774 | 34842 ft | 453 kts | 127° |
| 2026-05-05 14:32 | 49.14425 | 8.58822 | 34840 ft | 453 kts | 127° |
| 2026-05-05 14:33 | 49.10962 | 8.66864 | 34839 ft | 453 kts | 127° |
| 2026-05-05 14:33 | 49.07500 | 8.74883 | 34835 ft | 453 kts | 127° |
| 2026-05-05 14:34 | 49.04026 | 8.82904 | 34838 ft | 453 kts | 127° |
| 2026-05-05 14:34 | 49.00550 | 8.90904 | 34836 ft | 453 kts | 127° |
| 2026-05-05 14:35 | 48.97070 | 8.98892 | 34838 ft | 453 kts | 127° |
| 2026-05-05 14:35 | 48.93582 | 9.06873 | 34849 ft | 453 kts | 127° |
| 2026-05-05 14:36 | 48.90115 | 9.14784 | 34850 ft | 453 kts | 127° |
| 2026-05-05 14:36 | 48.86611 | 9.22753 | 34856 ft | 454 kts | 127° |
| 2026-05-05 14:37 | 48.83096 | 9.30727 | 34850 ft | 454 kts | 127° |
| 2026-05-05 14:37 | 48.79575 | 9.38691 | 34851 ft | 455 kts | 127° |
| 2026-05-05 14:38 | 48.76045 | 9.46650 | 34856 ft | 455 kts | 127° |
| 2026-05-05 14:38 | 48.72506 | 9.54606 | 34846 ft | 456 kts | 127° |
| 2026-05-05 14:39 | 48.68957 | 9.62566 | 34841 ft | 456 kts | 127° |
| 2026-05-05 14:39 | 48.67178 | 9.66547 | 34850 ft | 456 kts | 128° |
| 2026-05-05 14:40 | 48.61723 | 9.78326 | 34851 ft | 456 kts | 129° |
| 2026-05-05 14:40 | 48.58045 | 9.86150 | 34847 ft | 457 kts | 129° |
| 2026-05-05 14:41 | 48.54365 | 9.93986 | 34846 ft | 458 kts | 129° |
| 2026-05-05 14:41 | 48.50677 | 10.01835 | 34842 ft | 459 kts | 129° |
| 2026-05-05 14:42 | 48.46983 | 10.09680 | 34844 ft | 459 kts | 129° |
| 2026-05-05 14:42 | 48.43279 | 10.17521 | 34842 ft | 460 kts | 129° |
| 2026-05-05 14:43 | 48.42677 | 10.18794 | 34838 ft | 460 kts | 129° |
| 2026-05-05 14:43 | 48.40887 | 10.22573 | 34844 ft | 460 kts | 129° |
| 2026-05-05 14:44 | 48.37163 | 10.30418 | 34847 ft | 462 kts | 129° |
| 2026-05-05 14:44 | 48.33422 | 10.38276 | 34835 ft | 463 kts | 129° |
| 2026-05-05 14:45 | 48.29672 | 10.46132 | 34833 ft | 463 kts | 129° |
| 2026-05-05 14:45 | 48.25938 | 10.53931 | 34828 ft | 463 kts | 129° |
| 2026-05-05 14:46 | 48.22170 | 10.61780 | 34839 ft | 464 kts | 129° |
| 2026-05-05 14:46 | 48.18386 | 10.69637 | 34837 ft | 465 kts | 130° |
| 2026-05-05 14:47 | 48.14589 | 10.77499 | 34838 ft | 467 kts | 130° |
| 2026-05-05 14:47 | 48.10771 | 10.85380 | 34829 ft | 468 kts | 130° |
| 2026-05-05 14:48 | 48.06944 | 10.93260 | 34832 ft | 468 kts | 130° |
| 2026-05-05 14:48 | 48.03107 | 11.01136 | 34832 ft | 469 kts | 130° |
| 2026-05-05 14:49 | 47.99260 | 11.09013 | 34820 ft | 470 kts | 130° |
| 2026-05-05 14:49 | 47.95401 | 11.16888 | 34841 ft | 471 kts | 130° |
| 2026-05-05 14:50 | 47.91516 | 11.24794 | 34815 ft | 473 kts | 130° |
| 2026-05-05 14:50 | 47.87626 | 11.32695 | 34816 ft | 473 kts | 130° |
| 2026-05-05 14:51 | 47.84358 | 11.39315 | 34819 ft | 474 kts | 130° |
| 2026-05-05 14:51 | 47.79829 | 11.48521 | 34798 ft | 475 kts | 130° |
| 2026-05-05 14:52 | 47.75921 | 11.56452 | 34801 ft | 476 kts | 130° |
| 2026-05-05 14:52 | 47.71999 | 11.64385 | 34780 ft | 477 kts | 130° |
| 2026-05-05 14:53 | 47.68063 | 11.72322 | 34789 ft | 478 kts | 130° |
| 2026-05-05 14:53 | 47.64114 | 11.80263 | 34797 ft | 479 kts | 130° |
| 2026-05-05 14:54 | 47.60143 | 11.88225 | 34775 ft | 481 kts | 130° |
| 2026-05-05 14:54 | 47.56159 | 11.96192 | 34792 ft | 482 kts | 130° |
| 2026-05-05 14:55 | 47.51980 | 12.03907 | 34798 ft | 479 kts | 137° |
| 2026-05-05 14:55 | 47.47355 | 12.11029 | 34790 ft | 480 kts | 138° |
| 2026-05-05 14:56 | 47.42713 | 12.18099 | 34812 ft | 480 kts | 138° |
| 2026-05-05 14:56 | 47.38072 | 12.25206 | 34819 ft | 482 kts | 138° |
| 2026-05-05 14:57 | 47.33428 | 12.32345 | 34831 ft | 481 kts | 137° |
| 2026-05-05 14:57 | 47.28784 | 12.39475 | 34839 ft | 483 kts | 138° |
| 2026-05-05 14:58 | 47.24123 | 12.46604 | 34853 ft | 483 kts | 138° |
| 2026-05-05 14:58 | 47.19489 | 12.53677 | 34882 ft | 479 kts | 138° |
| 2026-05-05 14:59 | 47.14889 | 12.60674 | 34888 ft | 479 kts | 138° |
| 2026-05-05 14:59 | 47.10254 | 12.67705 | 34900 ft | 479 kts | 138° |
| 2026-05-05 15:00 | 47.06367 | 12.73585 | 34910 ft | 477 kts | 137° |
| 2026-05-05 15:00 | 47.00994 | 12.81696 | 34924 ft | 478 kts | 137° |
| 2026-05-05 15:01 | 46.96353 | 12.88681 | 34925 ft | 479 kts | 137° |
| 2026-05-05 15:01 | 46.91695 | 12.95674 | 34938 ft | 480 kts | 137° |
| 2026-05-05 15:02 | 46.87026 | 13.02665 | 34938 ft | 481 kts | 138° |
| 2026-05-05 15:02 | 46.82340 | 13.09662 | 34954 ft | 482 kts | 138° |
| 2026-05-05 15:03 | 46.77641 | 13.16660 | 34944 ft | 482 kts | 137° |
| 2026-05-05 15:03 | 46.72945 | 13.23636 | 34969 ft | 483 kts | 137° |
| 2026-05-05 15:04 | 46.68237 | 13.30611 | 34967 ft | 483 kts | 138° |
| 2026-05-05 15:04 | 46.63515 | 13.37588 | 34970 ft | 485 kts | 138° |
| 2026-05-05 15:05 | 46.56399 | 13.48065 | 34973 ft | 486 kts | 138° |
| 2026-05-05 15:06 | 46.51671 | 13.55005 | 34973 ft | 487 kts | 138° |